createdAt,value
2023-03-17T00:01:32.146Z,21.67
2023-03-17T00:03:59.025Z,21.75
2023-03-17T00:06:25.883Z,21.80
2023-03-17T00:08:52.645Z,21.89
2023-03-17T00:11:19.404Z,21.96
2023-03-17T00:13:46.180Z,21.92
2023-03-17T00:16:12.995Z,19.73
2023-03-17T00:18:39.808Z,17.75
2023-03-17T00:21:07.569Z,19.24
2023-03-17T00:23:35.199Z,20.21
2023-03-17T00:26:02.403Z,20.79
2023-03-17T00:28:29.185Z,20.97
2023-03-17T00:30:55.992Z,21.03
2023-03-17T00:33:22.862Z,21.28
2023-03-17T00:35:49.765Z,21.35
2023-03-17T00:38:16.559Z,21.48
2023-03-17T00:40:43.366Z,21.61
2023-03-17T00:43:10.198Z,21.66
2023-03-17T00:45:37.496Z,21.62
2023-03-17T00:48:04.275Z,21.84
2023-03-17T00:50:32.095Z,21.85
2023-03-17T00:52:59.121Z,22.00
2023-03-17T00:55:26.482Z,21.95
2023-03-17T00:57:53.561Z,19.37
2023-03-17T01:00:20.424Z,18.85
2023-03-17T01:02:47.200Z,19.60
2023-03-17T01:05:13.953Z,20.48
2023-03-17T01:07:40.713Z,20.85
2023-03-17T01:10:07.807Z,21.07
2023-03-17T01:12:34.589Z,21.32
2023-03-17T01:15:01.407Z,21.44
2023-03-17T01:17:28.959Z,21.49
2023-03-17T01:19:55.719Z,21.52
2023-03-17T01:22:22.474Z,21.76
2023-03-17T01:24:49.428Z,21.78
2023-03-17T01:27:16.383Z,21.76
2023-03-17T01:29:43.138Z,21.80
2023-03-17T01:32:10.567Z,22.06
2023-03-17T01:34:37.310Z,21.92
2023-03-17T01:37:04.252Z,18.83
2023-03-17T01:39:31.050Z,18.60
2023-03-17T01:41:58.092Z,20.01
2023-03-17T01:44:25.589Z,20.52
2023-03-17T01:46:52.632Z,20.86
2023-03-17T01:49:19.425Z,21.11
2023-03-17T01:51:46.282Z,21.22
2023-03-17T01:54:14.071Z,21.34
2023-03-17T01:56:41.609Z,21.55
2023-03-17T01:59:08.409Z,21.59
2023-03-17T02:01:35.223Z,21.61
2023-03-17T02:04:02.455Z,21.71
2023-03-17T02:06:29.438Z,21.86
2023-03-17T02:08:56.191Z,21.90
2023-03-17T02:11:23.826Z,21.90
2023-03-17T02:13:50.664Z,21.87
2023-03-17T02:16:17.554Z,22.00
2023-03-17T02:18:44.869Z,19.04
2023-03-17T02:21:11.650Z,18.23
2023-03-17T02:23:38.399Z,19.49
2023-03-17T02:26:05.142Z,20.40
2023-03-17T02:28:31.897Z,20.70
2023-03-17T02:30:58.720Z,21.10
2023-03-17T02:33:25.682Z,21.21
2023-03-17T02:35:52.819Z,21.38
2023-03-17T02:38:19.593Z,21.42
2023-03-17T02:40:46.337Z,21.57
2023-03-17T02:43:13.131Z,21.55
2023-03-17T02:45:40.020Z,21.66
2023-03-17T02:48:07.094Z,21.84
2023-03-17T02:50:33.887Z,21.86
2023-03-17T02:53:00.700Z,21.89
2023-03-17T02:55:27.474Z,21.97
2023-03-17T02:57:54.222Z,22.04
2023-03-17T03:00:21.434Z,19.83
2023-03-17T03:02:48.375Z,18.49
2023-03-17T03:05:15.204Z,19.36
2023-03-17T03:07:42.349Z,19.85
2023-03-17T03:10:09.232Z,19.70
2023-03-17T03:12:36.151Z,20.37
2023-03-17T03:15:02.921Z,20.84
2023-03-17T03:17:29.680Z,21.03
2023-03-17T03:19:56.441Z,21.24
2023-03-17T03:22:23.224Z,21.22
2023-03-17T03:24:49.980Z,21.33
2023-03-17T03:27:16.876Z,21.53
2023-03-17T03:29:43.678Z,21.56
2023-03-17T03:32:10.797Z,21.66
2023-03-17T03:34:37.558Z,21.58
2023-03-17T03:37:04.324Z,21.75
2023-03-17T03:39:31.772Z,21.83
2023-03-17T03:41:58.621Z,21.94
2023-03-17T03:44:25.418Z,21.89
2023-03-17T03:46:52.232Z,21.98
2023-03-17T03:49:19.127Z,20.37
2023-03-17T03:51:46.209Z,17.85
2023-03-17T03:54:12.954Z,18.93
2023-03-17T03:56:39.688Z,20.06
2023-03-17T03:59:07.180Z,20.73
2023-03-17T04:01:33.926Z,20.86
2023-03-17T04:04:00.859Z,21.02
2023-03-17T04:06:27.660Z,21.21
2023-03-17T04:08:55.987Z,21.28
2023-03-17T04:11:23.885Z,21.43
2023-03-17T04:13:50.907Z,21.63
2023-03-17T04:16:17.793Z,21.62
2023-03-17T04:18:44.687Z,21.65
2023-03-17T04:21:12.178Z,21.78
2023-03-17T04:23:39.395Z,21.86
2023-03-17T04:26:06.194Z,21.83
2023-03-17T04:28:33.015Z,22.11
2023-03-17T04:30:59.764Z,21.98
2023-03-17T04:33:26.563Z,22.14
2023-03-17T04:35:53.369Z,19.42
2023-03-17T04:38:20.552Z,18.42
2023-03-17T04:40:47.282Z,19.77
2023-03-17T04:43:14.107Z,20.38
2023-03-17T04:45:40.997Z,20.90
2023-03-17T04:48:07.884Z,21.07
2023-03-17T04:50:34.770Z,21.24
2023-03-17T04:53:01.576Z,21.44
2023-03-17T04:55:28.355Z,21.45
2023-03-17T04:57:55.109Z,21.51
2023-03-17T05:00:21.893Z,21.74
2023-03-17T05:02:48.742Z,21.73
2023-03-17T05:05:15.514Z,21.80
2023-03-17T05:07:44.118Z,21.77
2023-03-17T05:10:11.121Z,21.95
2023-03-17T05:12:37.870Z,21.98
2023-03-17T05:15:05.315Z,21.12
2023-03-17T05:17:32.047Z,18.16
2023-03-17T05:19:58.819Z,18.42
2023-03-17T05:22:26.037Z,20.10
2023-03-17T05:24:52.812Z,20.56
2023-03-17T05:27:19.572Z,20.85
2023-03-17T05:29:46.338Z,20.90
2023-03-17T05:32:13.796Z,21.17
2023-03-17T05:34:40.572Z,21.36
2023-03-17T05:37:07.528Z,21.33
2023-03-17T05:39:34.300Z,21.44
2023-03-17T05:42:01.083Z,21.58
2023-03-17T05:44:27.823Z,21.73
2023-03-17T05:46:55.735Z,21.82
2023-03-17T05:49:22.574Z,21.87
2023-03-17T05:51:49.350Z,21.86
2023-03-17T05:54:16.276Z,21.98
2023-03-17T05:56:43.083Z,22.02
2023-03-17T05:59:10.373Z,19.36
2023-03-17T06:01:37.166Z,18.12
2023-03-17T06:04:04.289Z,19.39
2023-03-17T06:06:31.052Z,20.30
2023-03-17T06:08:57.808Z,20.59
2023-03-17T06:11:24.565Z,20.96
2023-03-17T06:13:51.565Z,21.12
2023-03-17T06:16:18.402Z,21.28
2023-03-17T06:18:45.844Z,21.42
2023-03-17T06:21:12.600Z,21.56
2023-03-17T06:23:39.337Z,21.55
2023-03-17T06:26:06.264Z,21.67
2023-03-17T06:28:33.033Z,21.73
2023-03-17T06:30:59.825Z,21.80
2023-03-17T06:33:27.035Z,21.86
2023-03-17T06:35:53.899Z,22.00
2023-03-17T06:38:20.882Z,22.01
2023-03-17T06:40:47.823Z,21.75
2023-03-17T06:43:14.573Z,18.53
2023-03-17T06:45:41.947Z,18.69
2023-03-17T06:48:09.110Z,19.83
2023-03-17T06:50:36.050Z,20.58
2023-03-17T06:53:02.823Z,20.91
2023-03-17T06:55:29.908Z,21.08
2023-03-17T06:57:56.848Z,21.17
2023-03-17T07:00:23.709Z,21.36
2023-03-17T07:02:51.182Z,21.36
2023-03-17T07:05:18.447Z,21.51
2023-03-17T07:07:45.359Z,21.60
2023-03-17T07:10:13.587Z,21.74
2023-03-17T07:12:40.380Z,21.85
2023-03-17T07:15:07.135Z,21.82
2023-03-17T07:17:34.395Z,21.87
2023-03-17T07:20:01.214Z,22.11
2023-03-17T07:22:28.001Z,21.34
2023-03-17T07:24:54.796Z,18.10
2023-03-17T07:27:24.084Z,19.01
2023-03-17T07:29:51.242Z,20.14
2023-03-17T07:32:18.057Z,20.67
2023-03-17T07:34:44.830Z,20.80
2023-03-17T07:37:12.389Z,21.07
2023-03-17T07:39:39.801Z,21.31
2023-03-17T07:42:06.796Z,21.46
2023-03-17T07:44:33.628Z,21.78
2023-03-17T07:47:00.399Z,21.63
2023-03-17T07:49:40.469Z,21.65
2023-03-17T07:52:08.600Z,21.92
2023-03-17T07:54:36.098Z,21.97
2023-03-17T07:57:02.875Z,21.92
2023-03-17T07:59:30.013Z,22.06
2023-03-17T08:01:58.023Z,21.24
2023-03-17T08:04:24.857Z,21.41
2023-03-17T08:06:52.152Z,21.53
2023-03-17T08:09:18.894Z,21.82
2023-03-17T08:11:45.813Z,21.97
2023-03-17T08:14:13.070Z,19.65
2023-03-17T08:16:40.082Z,18.75
2023-03-17T08:19:07.636Z,19.85
2023-03-17T08:21:34.509Z,20.10
2023-03-17T08:24:01.590Z,20.70
2023-03-17T08:26:28.391Z,21.02
2023-03-17T08:28:55.370Z,21.18
2023-03-17T08:31:22.587Z,21.43
2023-03-17T08:33:49.421Z,21.56
2023-03-17T08:36:16.465Z,21.58
2023-03-17T08:38:43.571Z,21.76
2023-03-17T08:41:10.707Z,21.87
2023-03-17T08:43:38.046Z,21.80
2023-03-17T08:46:04.954Z,21.94
2023-03-17T08:48:31.825Z,21.97
2023-03-17T08:50:58.587Z,21.43
2023-03-17T08:53:25.893Z,18.30
2023-03-17T08:55:52.667Z,18.74
2023-03-17T08:58:20.064Z,20.15
2023-03-17T09:00:46.877Z,20.47
2023-03-17T09:03:13.705Z,20.83
2023-03-17T09:05:42.392Z,21.05
2023-03-17T09:08:09.281Z,21.29
2023-03-17T09:10:36.147Z,21.36
2023-03-17T09:13:05.772Z,21.43
2023-03-17T09:15:33.672Z,21.56
2023-03-17T09:18:00.827Z,21.64
2023-03-17T09:20:27.570Z,21.88
2023-03-17T09:22:54.374Z,21.75
2023-03-17T09:25:21.236Z,21.94
2023-03-17T09:27:48.148Z,21.93
2023-03-17T09:30:14.891Z,21.90
2023-03-17T09:32:42.256Z,19.14
2023-03-17T09:35:09.679Z,19.34
2023-03-17T09:37:36.791Z,20.20
2023-03-17T09:40:03.753Z,20.74
2023-03-17T09:42:33.231Z,21.02
2023-03-17T09:44:59.983Z,21.32
2023-03-17T09:47:26.734Z,21.38
2023-03-17T09:49:53.908Z,21.42
2023-03-17T09:52:20.750Z,21.58
2023-03-17T09:54:49.395Z,21.81
2023-03-17T09:57:19.195Z,21.84
2023-03-17T09:59:47.301Z,21.97
2023-03-17T10:02:14.219Z,22.10
2023-03-17T10:04:42.959Z,21.67
2023-03-17T10:07:10.815Z,19.00
2023-03-17T10:09:37.731Z,19.23
2023-03-17T10:12:04.526Z,20.19
2023-03-17T10:14:31.303Z,20.74
2023-03-17T10:16:58.521Z,21.11
2023-03-17T10:19:26.962Z,21.31
2023-03-17T10:21:53.962Z,21.33
2023-03-17T10:24:20.708Z,21.64
2023-03-17T10:26:47.517Z,21.67
2023-03-17T10:29:14.412Z,21.74
2023-03-17T10:31:41.252Z,21.85
2023-03-17T10:34:08.061Z,21.98
2023-03-17T10:36:34.863Z,21.92
2023-03-17T10:39:01.748Z,22.12
2023-03-17T10:41:28.552Z,21.27
2023-03-17T10:43:55.559Z,21.55
2023-03-17T10:46:23.214Z,21.77
2023-03-17T10:48:50.591Z,21.98
2023-03-17T10:51:17.338Z,20.45
2023-03-17T10:53:44.101Z,19.58
2023-03-17T10:56:10.879Z,19.47
2023-03-17T10:58:38.320Z,20.61
2023-03-17T11:01:05.640Z,20.90
2023-03-17T11:03:36.006Z,21.21
2023-03-17T11:06:03.820Z,21.41
2023-03-17T11:08:30.680Z,21.68
2023-03-17T11:10:57.561Z,21.61
2023-03-17T11:13:24.304Z,21.80
2023-03-17T11:15:51.077Z,21.80
2023-03-17T11:18:17.877Z,21.91
2023-03-17T11:20:44.743Z,21.47
2023-03-17T11:23:11.489Z,19.40
2023-03-17T11:25:38.930Z,19.22
2023-03-17T11:28:05.673Z,20.29
2023-03-17T11:30:33.080Z,20.80
2023-03-17T11:33:00.349Z,21.12
2023-03-17T11:35:27.104Z,21.32
2023-03-17T11:37:53.850Z,21.45
2023-03-17T11:40:21.042Z,21.61
2023-03-17T11:42:47.848Z,21.76
2023-03-17T11:45:15.464Z,21.69
2023-03-17T11:47:45.055Z,21.87
2023-03-17T11:50:12.104Z,21.93
2023-03-17T11:52:38.888Z,21.92
2023-03-17T11:55:05.728Z,21.02
2023-03-17T11:57:32.760Z,21.36
2023-03-17T11:59:59.580Z,21.66
2023-03-17T12:02:27.086Z,21.90
2023-03-17T12:04:53.869Z,22.05
2023-03-17T12:07:21.282Z,21.19
2023-03-17T12:09:49.124Z,21.45
2023-03-17T12:12:16.354Z,21.69
2023-03-17T12:14:43.158Z,21.91
2023-03-17T12:17:09.997Z,19.58
2023-03-17T12:19:36.829Z,19.36
2023-03-17T12:22:03.598Z,20.28
2023-03-17T12:24:30.399Z,20.85
2023-03-17T12:26:57.592Z,21.08
2023-03-17T12:29:24.383Z,21.35
2023-03-17T12:31:51.173Z,21.56
2023-03-17T12:34:18.402Z,21.54
2023-03-17T12:36:45.183Z,21.82
2023-03-17T12:39:12.500Z,21.82
2023-03-17T12:41:39.351Z,21.91
2023-03-17T12:44:06.127Z,22.07
2023-03-17T12:46:33.651Z,19.92
2023-03-17T12:49:00.441Z,19.52
2023-03-17T12:51:27.309Z,20.07
2023-03-17T12:53:54.091Z,20.77
2023-03-17T12:56:20.838Z,21.16
2023-03-17T12:58:47.600Z,21.38
2023-03-17T13:01:14.371Z,21.58
2023-03-17T13:03:41.314Z,21.49
2023-03-17T13:06:11.124Z,21.62
2023-03-17T13:08:38.025Z,21.81
2023-03-17T13:11:04.786Z,21.90
2023-03-17T13:13:31.624Z,21.95
2023-03-17T13:15:58.684Z,20.77
2023-03-17T13:18:25.436Z,19.79
2023-03-17T13:20:52.164Z,19.61
2023-03-17T13:23:19.107Z,20.63
2023-03-17T13:25:48.045Z,21.17
2023-03-17T13:28:15.311Z,21.28
2023-03-17T13:30:42.132Z,21.40
2023-03-17T13:33:12.146Z,21.58
2023-03-17T13:35:39.047Z,21.61
2023-03-17T13:38:05.947Z,21.83
2023-03-17T13:40:33.067Z,21.76
2023-03-17T13:42:59.951Z,21.96
2023-03-17T13:45:27.074Z,20.40
2023-03-17T13:47:55.396Z,19.46
2023-03-17T13:50:22.139Z,19.31
2023-03-17T13:52:49.108Z,20.46
2023-03-17T13:55:16.006Z,20.97
2023-03-17T13:57:42.788Z,21.17
2023-03-17T14:00:09.683Z,21.33
2023-03-17T14:02:36.454Z,21.40
2023-03-17T14:05:03.350Z,21.64
2023-03-17T14:07:31.065Z,21.68
2023-03-17T14:09:58.876Z,21.82
2023-03-17T14:12:25.821Z,21.93
2023-03-17T14:14:52.618Z,21.85
2023-03-17T14:17:19.354Z,20.04
2023-03-17T14:19:46.961Z,19.52
2023-03-17T14:22:13.748Z,19.93
2023-03-17T14:24:40.508Z,20.55
2023-03-17T14:27:07.843Z,21.09
2023-03-17T14:29:34.636Z,21.16
2023-03-17T14:32:02.216Z,21.36
2023-03-17T14:34:28.971Z,21.43
2023-03-17T14:36:55.861Z,21.69
2023-03-17T14:39:23.018Z,21.68
2023-03-17T14:41:49.774Z,21.76
2023-03-17T14:44:16.552Z,21.89
2023-03-17T14:46:43.313Z,21.70
2023-03-17T14:49:10.182Z,19.48
2023-03-17T14:51:37.055Z,19.38
2023-03-17T14:54:03.935Z,20.21
2023-03-17T14:56:30.701Z,20.79
2023-03-17T14:58:57.478Z,21.05
2023-03-17T15:01:24.309Z,21.41
2023-03-17T15:03:51.072Z,21.42
2023-03-17T15:06:18.299Z,21.57
2023-03-17T15:08:47.832Z,21.68
2023-03-17T15:11:14.579Z,21.78
2023-03-17T15:13:41.552Z,21.91
2023-03-17T15:16:08.363Z,22.08
2023-03-17T15:18:36.002Z,20.45
2023-03-17T15:21:03.543Z,19.23
2023-03-17T15:23:30.343Z,19.45
2023-03-17T15:25:57.100Z,20.62
2023-03-17T15:28:24.011Z,20.93
2023-03-17T15:30:51.292Z,21.24
2023-03-17T15:33:18.314Z,21.35
2023-03-17T15:35:45.416Z,21.37
2023-03-17T15:38:12.480Z,21.57
2023-03-17T15:40:39.220Z,21.57
2023-03-17T15:43:06.354Z,21.81
2023-03-17T15:45:33.114Z,21.86
2023-03-17T15:48:00.112Z,21.86
2023-03-17T15:50:28.660Z,21.65
2023-03-17T15:52:58.530Z,19.34
2023-03-17T15:55:25.305Z,19.05
2023-03-17T15:57:54.967Z,20.09
2023-03-17T16:00:22.888Z,20.67
2023-03-17T16:02:49.671Z,20.97
2023-03-17T16:05:16.555Z,21.27
2023-03-17T16:07:43.715Z,21.34
2023-03-17T16:10:10.749Z,21.42
2023-03-17T16:12:37.548Z,21.60
2023-03-17T16:15:13.223Z,21.65
2023-03-17T16:17:47.026Z,21.72
2023-03-17T16:20:14.450Z,21.94
2023-03-17T16:22:41.869Z,21.95
2023-03-17T16:25:08.883Z,21.05
2023-03-17T16:27:35.700Z,18.91
2023-03-17T16:30:02.591Z,19.00
2023-03-17T16:32:29.505Z,20.49
2023-03-17T16:34:56.255Z,20.64
2023-03-17T16:37:23.011Z,21.05
2023-03-17T16:39:52.068Z,21.22
2023-03-17T16:42:18.812Z,21.31
2023-03-17T16:44:45.598Z,21.45
2023-03-17T16:47:12.404Z,21.64
2023-03-17T16:49:39.179Z,21.82
2023-03-17T16:52:05.976Z,21.91
2023-03-17T16:54:33.403Z,21.82
2023-03-17T16:57:00.209Z,21.93
2023-03-17T16:59:31.144Z,21.97
2023-03-17T17:01:57.924Z,18.85
2023-03-17T17:04:25.019Z,18.55
2023-03-17T17:06:51.937Z,19.91
2023-03-17T17:09:19.095Z,20.35
2023-03-17T17:11:45.876Z,20.83
2023-03-17T17:14:12.670Z,21.15
2023-03-17T17:16:40.328Z,21.24
2023-03-17T17:19:07.225Z,21.42
2023-03-17T17:21:34.103Z,21.56
2023-03-17T17:24:00.967Z,21.64
2023-03-17T17:26:27.752Z,21.85
2023-03-17T17:28:54.543Z,21.79
2023-03-17T17:31:21.383Z,21.95
2023-03-17T17:33:48.161Z,21.85
2023-03-17T17:36:15.050Z,22.07
2023-03-17T17:38:42.184Z,20.30
2023-03-17T17:41:08.971Z,18.28
2023-03-17T17:43:35.975Z,18.40
2023-03-17T17:46:02.820Z,20.27
2023-03-17T17:48:29.661Z,20.64
2023-03-17T17:50:56.442Z,20.95
2023-03-17T17:53:23.215Z,21.14
2023-03-17T17:55:50.012Z,21.23
2023-03-17T17:58:16.758Z,21.39
2023-03-17T18:00:43.542Z,21.47
2023-03-17T18:03:10.468Z,21.48
2023-03-17T18:05:37.251Z,21.64
2023-03-17T18:08:04.205Z,21.68
2023-03-17T18:10:31.281Z,21.75
2023-03-17T18:12:58.317Z,21.90
2023-03-17T18:15:25.099Z,21.93
2023-03-17T18:17:51.850Z,20.37
2023-03-17T18:20:18.703Z,17.95
2023-03-17T18:22:45.511Z,17.21
2023-03-17T18:25:12.328Z,19.51
2023-03-17T18:27:39.147Z,20.20
2023-03-17T18:30:05.931Z,20.59
2023-03-17T18:32:33.411Z,20.69
2023-03-17T18:35:00.996Z,20.94
2023-03-17T18:37:27.839Z,21.13
2023-03-17T18:40:11.999Z,21.34
2023-03-17T18:42:40.528Z,21.32
2023-03-17T18:45:08.350Z,21.49
2023-03-17T18:47:36.513Z,21.65
2023-03-17T18:50:03.519Z,21.65
2023-03-17T18:52:30.282Z,21.73
2023-03-17T18:54:57.028Z,21.87
2023-03-17T18:57:23.831Z,21.93
2023-03-17T18:59:50.631Z,21.85
2023-03-17T19:02:17.414Z,21.97
2023-03-17T19:04:47.120Z,20.42
2023-03-17T19:07:14.011Z,18.14
2023-03-17T19:09:41.214Z,17.93
2023-03-17T19:12:07.975Z,19.56
2023-03-17T19:14:34.761Z,20.34
2023-03-17T19:17:01.528Z,20.74
2023-03-17T19:19:28.289Z,20.92
2023-03-17T19:21:55.045Z,21.01
2023-03-17T19:24:22.040Z,21.21
2023-03-17T19:26:48.812Z,21.39
2023-03-17T19:29:16.561Z,21.44
2023-03-17T19:31:43.392Z,21.51
2023-03-17T19:34:11.198Z,21.70
2023-03-17T19:36:37.993Z,21.74
2023-03-17T19:39:04.797Z,21.76
2023-03-17T19:41:32.619Z,21.91
2023-03-17T19:44:00.169Z,21.96
2023-03-17T19:46:27.266Z,22.08
2023-03-17T19:48:56.479Z,20.31
2023-03-17T19:51:23.394Z,17.70
2023-03-17T19:53:50.286Z,18.10
2023-03-17T19:56:17.087Z,19.80
2023-03-17T19:58:43.904Z,20.49
2023-03-17T20:01:10.734Z,20.76
2023-03-17T20:03:42.324Z,20.95
2023-03-17T20:06:09.105Z,21.16
2023-03-17T20:08:36.261Z,21.20
2023-03-17T20:11:03.228Z,21.28
2023-03-17T20:13:30.119Z,21.51
2023-03-17T20:15:57.168Z,21.59
2023-03-17T20:18:24.144Z,21.63
2023-03-17T20:20:50.940Z,21.78
2023-03-17T20:23:18.016Z,21.77
2023-03-17T20:25:44.809Z,21.98
2023-03-17T20:28:11.646Z,22.00
2023-03-17T20:30:38.407Z,21.92
2023-03-17T20:33:05.450Z,20.35
2023-03-17T20:35:32.225Z,17.75
2023-03-17T20:38:00.088Z,18.08
2023-03-17T20:40:26.891Z,19.66
2023-03-17T20:42:53.640Z,20.48
2023-03-17T20:45:21.144Z,20.71
2023-03-17T20:47:48.071Z,20.83
2023-03-17T20:50:14.873Z,21.02
2023-03-17T20:52:41.916Z,21.10
2023-03-17T20:55:09.194Z,21.24
2023-03-17T20:57:36.072Z,21.44
2023-03-17T21:00:02.835Z,21.57
2023-03-17T21:02:29.601Z,21.62
2023-03-17T21:04:56.734Z,21.68
2023-03-17T21:07:24.055Z,21.68
2023-03-17T21:09:51.800Z,21.80
2023-03-17T21:12:18.803Z,21.91
2023-03-17T21:14:46.425Z,21.69
2023-03-17T21:17:13.304Z,18.28
2023-03-17T21:19:40.473Z,18.93
2023-03-17T21:22:07.260Z,20.15
2023-03-17T21:24:34.157Z,20.56
2023-03-17T21:27:00.931Z,20.94
2023-03-17T21:29:27.687Z,21.04
2023-03-17T21:31:54.651Z,21.18
2023-03-17T21:34:21.568Z,21.39
2023-03-17T21:36:48.345Z,21.38
2023-03-17T21:39:15.138Z,21.53
2023-03-17T21:41:41.933Z,21.66
2023-03-17T21:44:09.779Z,21.80
2023-03-17T21:46:36.564Z,21.80
2023-03-17T21:49:03.465Z,21.81
2023-03-17T21:51:30.252Z,21.89
2023-03-17T21:53:57.784Z,21.99
2023-03-17T21:56:24.694Z,20.61
2023-03-17T21:58:51.639Z,17.81
2023-03-17T22:01:18.457Z,17.12
2023-03-17T22:03:45.261Z,19.34
2023-03-17T22:06:12.013Z,20.05
2023-03-17T22:08:38.810Z,20.54
2023-03-17T22:11:05.565Z,20.83
2023-03-17T22:13:32.322Z,20.92
2023-03-17T22:15:59.543Z,21.08
2023-03-17T22:18:26.960Z,21.18
2023-03-17T22:20:53.756Z,21.34
2023-03-17T22:23:20.539Z,21.45
2023-03-17T22:25:47.605Z,21.56
2023-03-17T22:28:14.419Z,21.66
2023-03-17T22:30:41.321Z,21.79
2023-03-17T22:33:08.479Z,21.85
2023-03-17T22:35:36.253Z,21.89
2023-03-17T22:38:03.023Z,21.92
2023-03-17T22:40:30.335Z,21.98
2023-03-17T22:42:57.316Z,21.57
2023-03-17T22:45:24.080Z,18.37
2023-03-17T22:47:51.004Z,18.55
2023-03-17T22:50:17.830Z,19.91
2023-03-17T22:52:44.739Z,20.48
2023-03-17T22:55:11.505Z,20.85
2023-03-17T22:57:38.306Z,20.96
2023-03-17T23:00:05.338Z,21.22
2023-03-17T23:02:32.096Z,21.30
2023-03-17T23:04:59.179Z,21.48
2023-03-17T23:07:25.944Z,21.53
2023-03-17T23:09:52.785Z,21.62
2023-03-17T23:12:22.895Z,21.68
2023-03-17T23:14:49.751Z,21.94
2023-03-17T23:17:16.830Z,21.90
2023-03-17T23:19:43.823Z,22.00
2023-03-17T23:22:10.899Z,21.98
2023-03-17T23:24:37.666Z,19.14
2023-03-17T23:27:04.413Z,18.67
2023-03-17T23:29:31.474Z,19.56
2023-03-17T23:31:58.749Z,20.35
2023-03-17T23:34:25.700Z,20.92
2023-03-17T23:36:52.458Z,20.91
2023-03-17T23:39:19.310Z,21.25
2023-03-17T23:41:46.064Z,21.36
2023-03-17T23:44:14.177Z,21.40
2023-03-17T23:46:40.918Z,21.43
2023-03-17T23:49:07.651Z,21.71
2023-03-17T23:51:34.480Z,21.68
2023-03-17T23:54:01.295Z,21.78
2023-03-17T23:56:28.056Z,21.82
2023-03-17T23:58:55.776Z,21.87
